createdAt,value
2022-12-19T00:00:45.041Z,-8.4
2022-12-19T00:01:47.155Z,-8.3
2022-12-19T00:02:49.151Z,-8.3
2022-12-19T00:03:51.161Z,-8.1
2022-12-19T00:04:53.042Z,-8.2
2022-12-19T00:05:55.074Z,-8.3
2022-12-19T00:06:57.462Z,-8.3
2022-12-19T00:07:59.048Z,-8.2
2022-12-19T00:09:01.015Z,-8.2
2022-12-19T00:10:03.071Z,-8.2
2022-12-19T00:11:05.021Z,-8.2
2022-12-19T00:12:07.426Z,-8.1
2022-12-19T00:13:09.041Z,-8
2022-12-19T00:14:11.005Z,-8
2022-12-19T00:15:13.140Z,-7.8
2022-12-19T00:16:15.084Z,-7.7
2022-12-19T00:17:16.987Z,-7.6
2022-12-19T00:18:18.981Z,-7.6
2022-12-19T00:19:21.005Z,-7.6
2022-12-19T00:20:23.015Z,-7.8
2022-12-19T00:21:25.128Z,-7.8
2022-12-19T00:22:27.521Z,-7.9
2022-12-19T00:23:28.981Z,-7.8
2022-12-19T00:24:31.022Z,-7.8
2022-12-19T00:25:33.002Z,-7.7
2022-12-19T00:26:36.018Z,-7.7
2022-12-19T00:27:38.021Z,-7.9
2022-12-19T00:28:40.001Z,-7.8
2022-12-19T00:29:42.023Z,-7.9
2022-12-19T00:30:44.141Z,-7.8
2022-12-19T00:31:46.113Z,-7.6
2022-12-19T00:32:48.041Z,-7.8
2022-12-19T00:33:50.041Z,-7.9
2022-12-19T00:34:52.021Z,-8
2022-12-19T00:35:54.261Z,-7.9
2022-12-19T00:36:57.201Z,-7.9
2022-12-19T00:37:59.061Z,-8
2022-12-19T00:39:01.126Z,-7.9
2022-12-19T00:40:03.064Z,-7.8
2022-12-19T00:41:05.022Z,-7.8
2022-12-19T00:42:07.023Z,-7.8
2022-12-19T00:43:09.021Z,-7.9
2022-12-19T00:44:11.054Z,-8.1
2022-12-19T00:45:13.021Z,-8.2
2022-12-19T00:46:15.177Z,-8.4
2022-12-19T00:47:17.041Z,-8.2
2022-12-19T00:48:19.041Z,-8.2
2022-12-19T00:49:21.038Z,-8.1
2022-12-19T00:50:23.041Z,-8.2
2022-12-19T00:51:25.022Z,-8
2022-12-19T00:52:27.325Z,-8
2022-12-19T00:53:29.104Z,-8.1
2022-12-19T00:54:31.085Z,-8
2022-12-19T00:55:33.001Z,-7.9
2022-12-19T00:56:37.409Z,-7.9
2022-12-19T00:57:37.000Z,-8
2022-12-19T00:58:42.146Z,-7.9
2022-12-19T00:59:41.074Z,-8
2022-12-19T01:00:43.088Z,-8.2
2022-12-19T01:01:45.405Z,-8.2
2022-12-19T01:02:47.185Z,-8.2
2022-12-19T01:04:19.049Z,-8.2
2022-12-19T01:04:51.030Z,-8.2
2022-12-19T01:05:53.902Z,-8.1
2022-12-19T01:06:56.691Z,-8.1
2022-12-19T01:07:58.097Z,-8.3
2022-12-19T01:09:00.077Z,-8.4
2022-12-19T01:10:02.083Z,-8.4
2022-12-19T01:11:04.476Z,-8.5
2022-12-19T01:12:06.478Z,-8.4
2022-12-19T01:13:08.004Z,-8.3
2022-12-19T01:14:09.018Z,-8.3
2022-12-19T01:15:10.016Z,-8.5
2022-12-19T01:16:12.099Z,-8.5
2022-12-19T01:17:14.102Z,-8.4
2022-12-19T01:18:15.959Z,-8.4
2022-12-19T01:19:17.999Z,-8.2
2022-12-19T01:20:25.332Z,-8.3
2022-12-19T01:21:22.027Z,-8.4
2022-12-19T01:22:24.010Z,-8.4
2022-12-19T01:23:25.117Z,-8.3
2022-12-19T01:24:27.036Z,-8.3
2022-12-19T01:25:29.110Z,-8.4
2022-12-19T01:26:31.008Z,-8.2
2022-12-19T01:27:32.077Z,-8
2022-12-19T01:28:33.996Z,-8
2022-12-19T01:29:36.795Z,-7.9
2022-12-19T01:30:38.077Z,-8
2022-12-19T01:31:40.130Z,-8.1
2022-12-19T01:32:42.221Z,-8.1
2022-12-19T01:33:43.991Z,-8.2
2022-12-19T01:34:46.039Z,-8.2
2022-12-19T01:35:48.014Z,-8.3
2022-12-19T01:36:50.037Z,-8.1
2022-12-19T01:37:53.589Z,-8
2022-12-19T01:38:54.276Z,-8.1
2022-12-19T01:39:55.988Z,-8.1
2022-12-19T01:40:57.056Z,-8.2
2022-12-19T01:41:59.046Z,-8.3
2022-12-19T01:43:01.256Z,-8.3
2022-12-19T01:44:03.120Z,-8.3
2022-12-19T01:45:05.339Z,-8.3
2022-12-19T01:46:07.577Z,-8.2
2022-12-19T01:47:09.012Z,-8.4
2022-12-19T01:48:10.197Z,-8.6
2022-12-19T01:49:12.038Z,-8.4
2022-12-19T01:50:14.021Z,-8.3
2022-12-19T01:51:16.016Z,-8.3
2022-12-19T01:52:20.771Z,-8.3
2022-12-19T01:53:20.295Z,-8.2
2022-12-19T01:54:22.057Z,-8.3
2022-12-19T01:55:24.015Z,-8.3
2022-12-19T01:56:26.024Z,-8.2
2022-12-19T01:57:27.966Z,-8.4
2022-12-19T01:58:28.968Z,-8.4
2022-12-19T01:59:31.043Z,-8.4
2022-12-19T02:00:33.009Z,-8.2
2022-12-19T02:01:35.287Z,-8.4
2022-12-19T02:02:37.100Z,-8.2
2022-12-19T02:06:51.219Z,-8.5
2022-12-19T02:07:53.263Z,-8.5
2022-12-19T02:08:55.036Z,-8.5
2022-12-19T02:09:57.767Z,-8.5
2022-12-19T02:10:58.949Z,-8.3
2022-12-19T02:12:01.066Z,-8.1
2022-12-19T02:13:02.965Z,-8.2
2022-12-19T02:14:05.006Z,-8
2022-12-19T02:15:06.987Z,-7.8
2022-12-19T02:16:09.040Z,-7.8
2022-12-19T02:17:11.031Z,-7.8
2022-12-19T02:18:13.007Z,-7.8
2022-12-19T02:19:14.967Z,-8
2022-12-19T02:20:16.935Z,-8.1
2022-12-19T02:21:18.982Z,-8
2022-12-19T02:22:21.145Z,-8
2022-12-19T02:23:23.056Z,-8.1
2022-12-19T02:24:24.992Z,-7.9
2022-12-19T02:25:27.020Z,-7.8
2022-12-19T02:26:28.991Z,-7.9
2022-12-19T02:27:33.082Z,-8
2022-12-19T02:28:32.992Z,-7.8
2022-12-19T02:29:34.998Z,-7.8
2022-12-19T02:30:37.053Z,-7.9
2022-12-19T02:31:39.013Z,-8
2022-12-19T02:32:41.035Z,-7.9
2022-12-19T02:33:43.025Z,-7.9
2022-12-19T02:34:45.137Z,-8
2022-12-19T02:35:47.047Z,-8.2
2022-12-19T02:36:49.024Z,-8.2
2022-12-19T02:37:51.126Z,-8.4
2022-12-19T02:38:53.058Z,-8.4
2022-12-19T02:39:55.032Z,-8.4
2022-12-19T02:40:57.006Z,-8.4
2022-12-19T02:41:59.059Z,-8.3
2022-12-19T02:43:01.120Z,-8.2
2022-12-19T02:44:03.323Z,-8.2
2022-12-19T02:45:05.118Z,-8
2022-12-19T02:46:07.041Z,-8.1
2022-12-19T02:47:09.040Z,-8.1
2022-12-19T02:48:13.041Z,-8.1
2022-12-19T02:49:13.035Z,-8.2
2022-12-19T02:50:15.067Z,-8.2
2022-12-19T02:51:17.064Z,-8.1
2022-12-19T02:52:19.006Z,-8.1
2022-12-19T02:53:22.486Z,-7.9
2022-12-19T02:54:23.070Z,-7.9
2022-12-19T02:55:25.047Z,-8
2022-12-19T02:56:27.098Z,-8
2022-12-19T02:57:29.068Z,-8.1
2022-12-19T02:58:29.991Z,-8.1
2022-12-19T02:59:32.042Z,-8.2
2022-12-19T03:00:34.111Z,-8.4
2022-12-19T03:01:36.175Z,-8.3
2022-12-19T03:02:38.152Z,-8.3
2022-12-19T03:03:40.062Z,-8.3
2022-12-19T03:04:42.031Z,-8.1
2022-12-19T03:05:44.065Z,-8.3
2022-12-19T03:06:46.045Z,-8.2
2022-12-19T03:07:48.037Z,-8.1
2022-12-19T03:08:49.196Z,-7.8
2022-12-19T03:09:51.073Z,-7.8
2022-12-19T03:10:53.054Z,-7.8
2022-12-19T03:11:55.053Z,-7.7
2022-12-19T03:12:57.074Z,-7.7
2022-12-19T03:13:59.095Z,-7.7
2022-12-19T03:15:01.096Z,-7.8
2022-12-19T03:16:03.029Z,-8
2022-12-19T03:17:05.128Z,-7.9
2022-12-19T03:18:07.038Z,-8
2022-12-19T03:19:09.017Z,-7.9
2022-12-19T03:20:11.043Z,-8.1
2022-12-19T03:21:13.101Z,-8
2022-12-19T03:22:15.118Z,-8
2022-12-19T03:23:17.057Z,-8.1
2022-12-19T03:24:19.175Z,-7.9
2022-12-19T03:25:21.038Z,-7.9
2022-12-19T03:26:23.058Z,-8
2022-12-19T03:27:25.143Z,-8
2022-12-19T03:28:27.168Z,-7.9
2022-12-19T03:29:29.128Z,-7.9
2022-12-19T03:30:31.165Z,-7.9
2022-12-19T03:31:33.059Z,-7.7
2022-12-19T03:32:35.019Z,-7.9
2022-12-19T03:33:37.080Z,-7.9
2022-12-19T03:34:39.101Z,-8
2022-12-19T03:35:41.061Z,-7.9
2022-12-19T03:36:42.063Z,-8
2022-12-19T03:37:44.061Z,-7.8
2022-12-19T03:38:46.525Z,-7.9
2022-12-19T03:39:48.185Z,-7.6
2022-12-19T03:40:50.063Z,-7.6
2022-12-19T03:41:52.139Z,-7.5
2022-12-19T03:42:54.123Z,-7.6
2022-12-19T03:43:56.084Z,-7.5
2022-12-19T03:44:58.096Z,-7.5
2022-12-19T03:45:59.095Z,-7.5
2022-12-19T03:47:01.084Z,-7.5
2022-12-19T03:48:03.350Z,-7.7
2022-12-19T03:49:05.064Z,-7.7
2022-12-19T03:50:07.106Z,-7.7
2022-12-19T03:51:09.135Z,-7.7
2022-12-19T03:52:11.105Z,-7.6
2022-12-19T03:53:13.121Z,-7.6
2022-12-19T03:54:15.031Z,-7.6
2022-12-19T03:55:17.227Z,-7.8
2022-12-19T03:56:19.066Z,-7.8
2022-12-19T03:57:21.067Z,-7.8
2022-12-19T03:58:23.095Z,-7.9
2022-12-19T03:59:25.073Z,-7.9
2022-12-19T04:00:27.106Z,-7.9
2022-12-19T04:01:29.202Z,-7.8
2022-12-19T04:02:31.093Z,-7.8
2022-12-19T04:03:33.157Z,-7.9
2022-12-19T04:04:35.126Z,-7.7
2022-12-19T04:05:37.086Z,-7.6
2022-12-19T04:06:39.085Z,-7.6
2022-12-19T04:07:41.164Z,-7.9
2022-12-19T04:08:43.073Z,-7.8
2022-12-19T04:09:45.087Z,-7.7
2022-12-19T04:10:47.131Z,-7.8
2022-12-19T04:11:49.107Z,-7.8
2022-12-19T04:12:51.090Z,-7.8
2022-12-19T04:13:53.108Z,-7.8
2022-12-19T04:14:55.147Z,-7.7
2022-12-19T04:15:57.172Z,-7.6
2022-12-19T04:16:59.070Z,-7.6
2022-12-19T04:18:01.129Z,-7.5
2022-12-19T04:19:03.110Z,-7.6
2022-12-19T04:20:05.131Z,-7.6
2022-12-19T04:21:07.090Z,-7.7
2022-12-19T04:22:09.048Z,-7.5
2022-12-19T04:23:11.109Z,-7.4
2022-12-19T04:24:13.130Z,-7.3
2022-12-19T04:25:15.115Z,-7.4
2022-12-19T04:26:17.180Z,-7.4
2022-12-19T04:27:19.090Z,-7.4
2022-12-19T04:28:21.089Z,-7.2
2022-12-19T04:29:23.588Z,-7.2
2022-12-19T04:30:25.069Z,-7.3
2022-12-19T04:31:27.162Z,-7.3
2022-12-19T04:32:29.148Z,-7.3
2022-12-19T04:33:31.095Z,-7.2
2022-12-19T04:34:33.055Z,-7.1
2022-12-19T04:35:35.070Z,-7.2
2022-12-19T04:36:37.123Z,-6.9
2022-12-19T04:37:39.091Z,-6.9
2022-12-19T04:38:40.032Z,-6.9
2022-12-19T04:39:41.181Z,-7
2022-12-19T04:40:43.151Z,-7
2022-12-19T04:41:45.226Z,-7
2022-12-19T04:42:47.081Z,-6.8
2022-12-19T04:43:49.068Z,-6.8
2022-12-19T04:44:51.109Z,-6.9
2022-12-19T04:45:57.243Z,-6.9
2022-12-19T04:46:55.159Z,-7.1
2022-12-19T04:47:57.105Z,-7.1
2022-12-19T04:48:58.117Z,-7.2
2022-12-19T04:50:00.126Z,-7.3
2022-12-19T04:51:02.126Z,-7.3
2022-12-19T04:52:04.110Z,-7.2
2022-12-19T04:53:06.125Z,-7.2
2022-12-19T04:54:08.110Z,-7.1
2022-12-19T04:55:09.168Z,-7.1
2022-12-19T04:56:11.110Z,-7.1
2022-12-19T04:57:13.140Z,-7.1
2022-12-19T04:58:19.023Z,-7
2022-12-19T04:59:17.086Z,-6.9
2022-12-19T05:00:19.108Z,-7
2022-12-19T05:01:21.230Z,-6.9
2022-12-19T05:02:23.272Z,-6.9
2022-12-19T05:03:25.253Z,-6.8
2022-12-19T05:04:27.148Z,-6.9
2022-12-19T05:05:29.111Z,-7.2
2022-12-19T05:06:30.086Z,-7.2
2022-12-19T05:07:32.166Z,-7.2
2022-12-19T05:08:34.092Z,-7.2
2022-12-19T05:09:36.089Z,-7.1
2022-12-19T05:10:38.037Z,-7.1
2022-12-19T05:11:40.046Z,-7
2022-12-19T05:12:42.236Z,-7
2022-12-19T05:13:44.086Z,-6.9
2022-12-19T05:14:46.146Z,-6.9
2022-12-19T05:15:48.152Z,-7
2022-12-19T05:16:50.086Z,-6.9
2022-12-19T05:17:52.106Z,-7
2022-12-19T05:18:54.067Z,-7
2022-12-19T05:19:56.146Z,-6.9
2022-12-19T05:20:58.088Z,-7
2022-12-19T05:21:59.086Z,-7.1
2022-12-19T05:23:03.866Z,-6.9
2022-12-19T05:24:02.104Z,-6.9
2022-12-19T05:25:04.195Z,-6.9
2022-12-19T05:26:06.098Z,-6.9
2022-12-19T05:27:08.099Z,-7
2022-12-19T05:28:09.285Z,-7.1
2022-12-19T05:29:11.118Z,-7.2
2022-12-19T05:30:13.189Z,-7.3
2022-12-19T05:31:15.160Z,-7.3
2022-12-19T05:32:17.086Z,-7.4
2022-12-19T05:33:19.124Z,-7.4
2022-12-19T05:34:21.064Z,-7.5
2022-12-19T05:35:22.093Z,-7.5
2022-12-19T05:36:25.418Z,-7.5
2022-12-19T05:37:25.106Z,-7.6
2022-12-19T05:38:27.144Z,-7.4
2022-12-19T05:39:29.197Z,-7.4
2022-12-19T05:40:31.099Z,-7.3
2022-12-19T05:41:33.088Z,-7.3
2022-12-19T05:42:35.083Z,-7.5
2022-12-19T05:43:37.273Z,-7.6
2022-12-19T05:44:39.158Z,-7.5
2022-12-19T05:45:41.124Z,-7.5
2022-12-19T05:46:43.164Z,-7.4
2022-12-19T05:47:45.105Z,-7.4
2022-12-19T05:48:47.046Z,-7.5
2022-12-19T05:49:49.122Z,-7.5
2022-12-19T05:50:51.080Z,-7.5
2022-12-19T05:51:53.104Z,-7.6
2022-12-19T05:52:55.129Z,-7.4
2022-12-19T05:53:57.162Z,-7.4
2022-12-19T05:54:59.126Z,-7.3
2022-12-19T05:56:01.222Z,-7.2
2022-12-19T05:57:03.102Z,-6.9
2022-12-19T05:58:05.122Z,-6.9
2022-12-19T05:59:07.170Z,-6.8
2022-12-19T06:00:09.202Z,-6.7
2022-12-19T06:01:11.104Z,-6.8
2022-12-19T06:02:13.200Z,-7
2022-12-19T06:03:15.170Z,-7
2022-12-19T06:04:17.066Z,-7.2
2022-12-19T06:05:19.104Z,-7.1
2022-12-19T06:06:21.161Z,-7.2
2022-12-19T06:07:23.074Z,-7.2
2022-12-19T06:08:25.164Z,-7.2
2022-12-19T06:09:27.141Z,-7.2
2022-12-19T06:10:29.382Z,-7.1
2022-12-19T06:11:31.147Z,-6.9
2022-12-19T06:12:33.163Z,-6.8
2022-12-19T06:13:35.096Z,-6.7
2022-12-19T06:14:37.426Z,-6.7
2022-12-19T06:15:39.147Z,-6.6
2022-12-19T06:16:41.219Z,-6.7
2022-12-19T06:17:43.139Z,-6.7
2022-12-19T06:18:45.609Z,-6.7
2022-12-19T06:19:47.187Z,-6.6
2022-12-19T06:20:49.197Z,-6.5
2022-12-19T06:21:51.139Z,-6.4
2022-12-19T06:22:53.169Z,-6.3
2022-12-19T06:23:55.137Z,-6.2
2022-12-19T06:24:56.160Z,-6.1
2022-12-19T06:25:58.128Z,-6.2
2022-12-19T06:27:00.163Z,-6.2
2022-12-19T06:28:02.154Z,-6.1
2022-12-19T06:29:04.138Z,-5.9
2022-12-19T06:30:06.350Z,-5.8
2022-12-19T06:31:08.223Z,-5.8
2022-12-19T06:32:10.139Z,-6
2022-12-19T06:33:12.158Z,-6.1
2022-12-19T06:34:27.240Z,-6
2022-12-19T06:35:16.167Z,-5.7
2022-12-19T06:36:18.201Z,-5.5
2022-12-19T06:37:20.138Z,-5.5
2022-12-19T06:38:22.130Z,-5.4
2022-12-19T06:39:24.177Z,-5.5
2022-12-19T06:40:26.219Z,-5.4
2022-12-19T06:41:28.113Z,-5.3
2022-12-19T06:42:30.137Z,-5.3
2022-12-19T06:43:32.182Z,-5.4
2022-12-19T06:44:34.191Z,-5.6
2022-12-19T06:45:36.369Z,-5.5
2022-12-19T06:46:38.218Z,-5.3
2022-12-19T06:47:40.139Z,-5.1
2022-12-19T06:48:42.129Z,-5.1
2022-12-19T06:49:44.139Z,-4.9
2022-12-19T06:50:46.102Z,-4.9
2022-12-19T06:51:48.177Z,-4.8
2022-12-19T06:52:50.538Z,-4.7
2022-12-19T06:53:52.198Z,-4.7
2022-12-19T06:54:54.146Z,-5
2022-12-19T06:55:56.189Z,-5
2022-12-19T06:56:58.157Z,-5.3
2022-12-19T06:58:00.141Z,-5.3
2022-12-19T06:59:02.118Z,-5
2022-12-19T07:00:04.198Z,-4.9
2022-12-19T07:01:06.456Z,-4.9
2022-12-19T07:02:08.364Z,-5
2022-12-19T07:03:10.214Z,-5
2022-12-19T07:04:11.225Z,-5
2022-12-19T07:05:13.243Z,-4.9
2022-12-19T07:06:15.177Z,-4.9
2022-12-19T07:07:17.138Z,-4.6
2022-12-19T07:08:19.156Z,-4.5
2022-12-19T07:09:21.116Z,-4.6
2022-12-19T07:10:23.129Z,-4.5
2022-12-19T07:11:25.137Z,-4.4
2022-12-19T07:12:27.174Z,-4.3
2022-12-19T07:13:29.364Z,-4.3
2022-12-19T07:14:31.077Z,-4.3
2022-12-19T07:15:33.217Z,-4.3
2022-12-19T07:16:35.328Z,-4.1
2022-12-19T07:17:37.180Z,-4.2
2022-12-19T07:18:39.104Z,-4.1
2022-12-19T07:19:41.097Z,-4
2022-12-19T07:20:45.132Z,-4
2022-12-19T07:21:45.165Z,-3.9
2022-12-19T07:22:47.115Z,-3.7
2022-12-19T07:23:48.098Z,-3.8
2022-12-19T07:24:49.087Z,-3.7
2022-12-19T07:25:50.157Z,-3.6
2022-12-19T07:26:51.197Z,-3.6
2022-12-19T07:27:53.185Z,-3.6
2022-12-19T07:28:55.199Z,-3.5
2022-12-19T07:29:57.135Z,-3.5
2022-12-19T07:30:58.175Z,-3.5
2022-12-19T07:32:00.355Z,-3.6
2022-12-19T07:33:02.138Z,-3.7
2022-12-19T07:34:04.153Z,-3.6
2022-12-19T07:35:06.195Z,-3.7
2022-12-19T07:36:08.157Z,-3.6
2022-12-19T07:37:10.175Z,-3.5
2022-12-19T07:38:12.236Z,-3.6
2022-12-19T07:39:14.176Z,-3.6
2022-12-19T07:40:16.216Z,-3.6
2022-12-19T07:41:18.151Z,-3.6
2022-12-19T07:42:20.155Z,-3.7
2022-12-19T07:43:22.216Z,-3.5
2022-12-19T07:44:24.175Z,-3.4
2022-12-19T07:45:26.250Z,-3.4
2022-12-19T07:46:28.125Z,-3.3
2022-12-19T07:47:30.240Z,-3.5
2022-12-19T07:48:32.254Z,-3.4
2022-12-19T07:49:34.122Z,-3.2
2022-12-19T07:50:36.134Z,-3.2
2022-12-19T07:51:37.179Z,-3.1
2022-12-19T07:52:39.140Z,-3
2022-12-19T07:53:41.254Z,-3.3
2022-12-19T07:54:43.196Z,-3.2
2022-12-19T07:55:45.165Z,-3.2
2022-12-19T07:56:47.122Z,-3
2022-12-19T07:57:49.177Z,-3
2022-12-19T07:58:51.236Z,-3
2022-12-19T07:59:53.195Z,-3
2022-12-19T08:00:55.261Z,-2.9
2022-12-19T08:01:57.317Z,-2.8
2022-12-19T08:02:59.431Z,-2.8
2022-12-19T08:04:01.173Z,-2.7
2022-12-19T08:05:03.195Z,-2.7
2022-12-19T08:06:05.334Z,-2.4
2022-12-19T08:07:07.156Z,-2.5
2022-12-19T08:08:09.180Z,-2.8
2022-12-19T08:09:11.177Z,-2.6
2022-12-19T08:10:13.177Z,-2.5
2022-12-19T08:11:15.236Z,-2.7
2022-12-19T08:12:17.179Z,-2.5
2022-12-19T08:13:19.155Z,-2.7
2022-12-19T08:14:21.159Z,-2.5
2022-12-19T08:15:24.403Z,-2.4
2022-12-19T08:16:27.227Z,-2.3
2022-12-19T08:17:29.427Z,-2.4
2022-12-19T08:18:31.174Z,-2.7
2022-12-19T08:19:33.177Z,-2.5
2022-12-19T08:20:35.195Z,-2.6
2022-12-19T08:21:37.180Z,-2.4
2022-12-19T08:22:39.270Z,-2.5
2022-12-19T08:23:41.322Z,-2.4
2022-12-19T08:24:43.161Z,-2.3
2022-12-19T08:25:45.174Z,-2.4
2022-12-19T08:26:47.803Z,-2.5
2022-12-19T08:27:49.215Z,-2.5
2022-12-19T08:28:51.174Z,-2.5
2022-12-19T08:29:53.178Z,-2.5
2022-12-19T08:30:55.204Z,-2.6
2022-12-19T08:31:57.215Z,-2.5
2022-12-19T08:32:59.215Z,-2.5
2022-12-19T08:34:01.351Z,-2.5
2022-12-19T08:35:03.176Z,-2.3
2022-12-19T08:36:05.174Z,-2.3
2022-12-19T08:37:07.176Z,-2.2
2022-12-19T08:38:08.215Z,-2.1
2022-12-19T08:39:10.176Z,-2.1
2022-12-19T08:40:12.256Z,-2.3
2022-12-19T08:41:14.184Z,-2.1
2022-12-19T08:42:16.175Z,-2
2022-12-19T08:43:18.199Z,-2
2022-12-19T08:44:20.217Z,-2
2022-12-19T08:45:22.161Z,-1.9
2022-12-19T08:46:24.203Z,-1.9
2022-12-19T08:47:26.163Z,-1.8
2022-12-19T08:48:28.203Z,-1.7
2022-12-19T08:49:30.361Z,-1.6
2022-12-19T08:50:32.196Z,-1.7
2022-12-19T08:51:34.216Z,-1.7
2022-12-19T08:52:36.199Z,-1.8
2022-12-19T08:53:38.154Z,-1.9
2022-12-19T08:54:39.203Z,-1.9
2022-12-19T08:55:41.215Z,-1.8
2022-12-19T08:56:46.194Z,-1.8
2022-12-19T08:57:45.175Z,-1.7
2022-12-19T08:58:47.235Z,-1.6
2022-12-19T08:59:49.201Z,-1.5
2022-12-19T09:00:55.670Z,-1.5
2022-12-19T09:01:53.312Z,-1.6
2022-12-19T09:02:54.356Z,-1.6
2022-12-19T09:04:29.891Z,-1.6
2022-12-19T09:05:18.861Z,-1.4
2022-12-19T09:06:06.867Z,-1.4
2022-12-19T09:07:02.225Z,-1.2
2022-12-19T09:08:04.177Z,-1.1
2022-12-19T09:09:06.220Z,-1
2022-12-19T09:10:08.199Z,-0.9
2022-12-19T09:11:10.257Z,-0.7
2022-12-19T09:12:15.176Z,-0.5
2022-12-19T09:13:17.236Z,-0.3
2022-12-19T09:14:21.134Z,-0.4
2022-12-19T09:15:21.182Z,-0.4
2022-12-19T09:16:23.309Z,-0.4
2022-12-19T09:17:25.257Z,-0.4
2022-12-19T09:18:27.280Z,-0.4
2022-12-19T09:19:29.642Z,-0.3
2022-12-19T09:20:31.359Z,-0.1
2022-12-19T09:21:33.197Z,-0.2
2022-12-19T09:22:35.195Z,-0.2
2022-12-19T09:23:37.278Z,-0.1
2022-12-19T09:24:39.216Z,0
2022-12-19T09:25:41.218Z,0.2
2022-12-19T09:26:43.227Z,0.3
2022-12-19T09:28:17.830Z,0.4
2022-12-19T09:28:47.342Z,0.3
2022-12-19T09:29:49.219Z,0.2
2022-12-19T09:30:51.295Z,0.2
2022-12-19T09:31:56.084Z,0.3
2022-12-19T09:32:55.136Z,0.3
2022-12-19T09:33:57.239Z,0.3
2022-12-19T09:34:59.262Z,0.4
2022-12-19T09:36:01.359Z,0.3
2022-12-19T09:37:03.261Z,0.4
2022-12-19T09:38:05.296Z,0.5
2022-12-19T09:39:07.241Z,0.6
2022-12-19T09:40:09.302Z,0.5
2022-12-19T09:41:11.224Z,0.6
2022-12-19T09:42:13.237Z,0.6
2022-12-19T09:43:15.240Z,0.6
2022-12-19T09:44:17.209Z,0.6
2022-12-19T09:45:26.781Z,0.7
2022-12-19T09:46:21.303Z,0.6
2022-12-19T09:47:23.193Z,0.5
2022-12-19T09:48:25.187Z,0.5
2022-12-19T09:49:27.245Z,0.6
2022-12-19T09:50:29.577Z,0.4
2022-12-19T09:51:34.283Z,0.4
2022-12-19T09:52:36.298Z,0.2
2022-12-19T09:53:38.306Z,0.1
2022-12-19T09:54:40.240Z,0.2
2022-12-19T09:55:42.239Z,0.3
2022-12-19T09:56:46.051Z,0.4
2022-12-19T09:57:46.196Z,0.6
2022-12-19T09:58:47.458Z,0.7
2022-12-19T09:59:50.085Z,0.8
2022-12-19T10:00:55.159Z,1
2022-12-19T10:01:53.351Z,1
2022-12-19T10:02:55.377Z,1
2022-12-19T10:03:57.284Z,1.1
2022-12-19T10:05:05.926Z,1.2
2022-12-19T10:06:15.515Z,1.3
2022-12-19T10:07:10.884Z,1.4
2022-12-19T10:08:10.743Z,1.4
2022-12-19T10:09:59.319Z,1.4
2022-12-19T10:11:25.677Z,1.3
2022-12-19T10:12:34.695Z,1.1
2022-12-19T10:12:41.560Z,1.1
2022-12-19T10:13:16.268Z,1.1
2022-12-19T10:14:17.252Z,1
2022-12-19T10:15:18.384Z,0.9
2022-12-19T10:16:20.342Z,0.8
2022-12-19T10:17:24.743Z,0.8
2022-12-19T10:18:24.217Z,0.8
2022-12-19T10:19:26.237Z,0.8
2022-12-19T10:20:28.451Z,0.8
2022-12-19T10:21:51.160Z,0.9
2022-12-19T10:22:32.392Z,0.7
2022-12-19T10:23:34.260Z,0.7
2022-12-19T10:24:36.283Z,0.8
2022-12-19T10:25:38.237Z,0.9
2022-12-19T10:26:40.267Z,1
2022-12-19T10:27:44.233Z,1
2022-12-19T10:28:44.329Z,1
2022-12-19T10:29:46.220Z,1.2
2022-12-19T10:30:47.336Z,1.3
2022-12-19T10:31:52.017Z,1.4
2022-12-19T10:32:51.287Z,1.6
2022-12-19T10:33:53.321Z,1.6
2022-12-19T10:34:55.281Z,1.6
2022-12-19T10:35:57.424Z,1.7
2022-12-19T10:37:23.316Z,1.7
2022-12-19T10:38:01.448Z,1.9
2022-12-19T10:39:03.235Z,2.1
2022-12-19T10:40:07.371Z,2.2
2022-12-19T10:41:08.357Z,2.1
2022-12-19T10:42:10.661Z,2.2
2022-12-19T10:43:15.410Z,2.5
2022-12-19T10:44:14.304Z,2.6
2022-12-19T10:45:16.257Z,2.7
2022-12-19T10:46:18.420Z,2.6
2022-12-19T10:47:20.259Z,2.5
2022-12-19T10:48:22.495Z,2.4
2022-12-19T10:49:24.275Z,2.2
2022-12-19T10:50:26.310Z,2
2022-12-19T10:51:28.359Z,1.8
2022-12-19T10:52:30.251Z,1.9
2022-12-19T10:53:32.531Z,1.9
2022-12-19T10:54:34.460Z,1.9
2022-12-19T10:55:36.312Z,2
2022-12-19T10:56:38.285Z,2.2
2022-12-19T10:57:40.257Z,2.3
2022-12-19T10:58:42.235Z,2.3
2022-12-19T10:59:44.204Z,2.4
2022-12-19T11:00:46.325Z,2.4
2022-12-19T11:02:00.558Z,2.5
2022-12-19T11:02:50.386Z,2.4
2022-12-19T11:03:52.255Z,2.4
2022-12-19T11:04:54.310Z,2.6
2022-12-19T11:05:57.906Z,2.7
2022-12-19T11:06:58.307Z,2.8
2022-12-19T11:08:00.311Z,2.8
2022-12-19T11:09:02.265Z,2.8
2022-12-19T11:10:29.108Z,2.8
2022-12-19T11:11:23.485Z,3
2022-12-19T11:13:33.825Z,3.2
2022-12-19T11:14:49.957Z,3.2
2022-12-19T11:16:42.131Z,3.2
2022-12-19T11:17:11.775Z,3.1
2022-12-19T11:17:39.817Z,3.2
2022-12-19T11:19:49.164Z,3.2
2022-12-19T11:20:25.235Z,3.1
2022-12-19T11:23:23.409Z,3.3
2022-12-19T11:23:38.740Z,3.3
2022-12-19T11:27:58.048Z,3.3
2022-12-19T11:29:27.946Z,3.2
2022-12-19T11:29:28.288Z,3.2
2022-12-19T11:30:21.635Z,3.3
2022-12-19T11:30:21.740Z,3.2
2022-12-19T11:30:21.833Z,3.3
2022-12-19T11:30:22.241Z,3.2
2022-12-19T11:30:23.562Z,3.2
2022-12-19T11:32:48.772Z,3.8
2022-12-19T11:33:50.317Z,3.8
2022-12-19T11:34:52.959Z,3.7
2022-12-19T11:35:54.319Z,3.5
2022-12-19T11:36:56.217Z,3.4
2022-12-19T11:37:58.254Z,3.3
2022-12-19T11:39:00.275Z,3.2
2022-12-19T11:40:02.516Z,3.1
2022-12-19T11:41:04.284Z,3.1
2022-12-19T11:42:06.346Z,3.1
2022-12-19T11:43:42.966Z,2.9
2022-12-19T11:44:10.298Z,2.9
2022-12-19T11:45:12.291Z,3
2022-12-19T11:46:19.563Z,3
2022-12-19T11:47:16.280Z,3
2022-12-19T11:48:18.298Z,2.9
2022-12-19T11:49:20.299Z,2.9
2022-12-19T11:50:22.301Z,2.9
2022-12-19T11:51:24.247Z,2.9
2022-12-19T11:53:28.346Z,2.6
2022-12-19T11:54:30.821Z,2.5
2022-12-19T11:55:32.384Z,2.5
2022-12-19T11:56:34.269Z,2.6
2022-12-19T11:57:36.316Z,2.6
2022-12-19T11:58:38.317Z,2.6
2022-12-19T11:59:40.339Z,2.6
2022-12-19T12:00:42.238Z,2.5
2022-12-19T12:01:44.570Z,2.3
2022-12-19T12:02:46.388Z,2.2
2022-12-19T12:03:54.118Z,2.2
2022-12-19T12:04:50.283Z,1.9
2022-12-19T12:05:52.302Z,1.9
2022-12-19T12:06:54.372Z,1.9
2022-12-19T12:08:33.917Z,2
2022-12-19T12:09:23.013Z,2.1
2022-12-19T12:11:38.284Z,2.1
2022-12-19T12:13:52.058Z,2.3
2022-12-19T12:15:05.262Z,2.4
2022-12-19T12:17:18.710Z,2.4
2022-12-19T12:17:28.127Z,2.5
2022-12-19T12:20:49.861Z,2.4
2022-12-19T12:21:52.742Z,2.3
2022-12-19T12:22:00.191Z,2.2
2022-12-19T12:22:01.784Z,2.3
2022-12-19T12:25:27.948Z,2.2
2022-12-19T12:28:47.890Z,2.3
2022-12-19T12:30:15.545Z,2.2
2022-12-19T12:31:03.532Z,1.9
2022-12-19T12:31:33.150Z,1.8
2022-12-19T12:31:33.504Z,1.7
2022-12-19T12:31:33.882Z,1.8
2022-12-19T12:31:34.402Z,2
2022-12-19T12:31:35.198Z,1.8
2022-12-19T12:31:36.914Z,1.7
2022-12-19T12:31:37.210Z,1.7
2022-12-19T12:31:38.037Z,1.8
2022-12-19T12:32:59.878Z,1.4
2022-12-19T12:35:25.794Z,1.4
2022-12-19T12:35:27.103Z,1.4
2022-12-19T12:37:45.808Z,1.5
2022-12-19T12:38:18.609Z,1.6
2022-12-19T12:39:57.339Z,1.6
2022-12-19T12:40:59.483Z,1.6
2022-12-19T12:42:01.344Z,1.6
2022-12-19T12:43:03.370Z,1.6
2022-12-19T12:44:05.364Z,1.7
2022-12-19T12:45:07.320Z,1.6
2022-12-19T12:46:09.325Z,1.6
2022-12-19T12:47:11.360Z,1.7
2022-12-19T12:48:13.348Z,1.8
2022-12-19T12:49:15.344Z,1.8
2022-12-19T12:50:17.299Z,1.9
2022-12-19T12:51:19.239Z,2
2022-12-19T12:52:21.304Z,2
2022-12-19T12:53:23.338Z,2.1
2022-12-19T12:54:25.342Z,2.2
2022-12-19T12:55:27.339Z,2.2
2022-12-19T12:56:29.280Z,2.1
2022-12-19T12:57:32.790Z,2
2022-12-19T12:58:33.306Z,2
2022-12-19T12:59:34.320Z,2
2022-12-19T13:00:36.333Z,2
2022-12-19T13:01:38.423Z,2.1
2022-12-19T13:02:40.476Z,2.1
2022-12-19T13:03:42.276Z,2
2022-12-19T13:04:45.260Z,2
2022-12-19T13:05:46.327Z,1.9
2022-12-19T13:06:48.380Z,1.9
2022-12-19T13:07:50.293Z,1.9
2022-12-19T13:08:52.257Z,1.9
2022-12-19T13:09:54.276Z,1.9
2022-12-19T13:10:56.299Z,1.9
2022-12-19T13:11:58.419Z,1.8
2022-12-19T13:13:00.347Z,1.7
2022-12-19T13:14:02.358Z,1.5
2022-12-19T13:15:04.390Z,1.4
2022-12-19T13:16:06.302Z,1.3
2022-12-19T13:17:08.360Z,1.3
2022-12-19T13:18:10.347Z,1.4
2022-12-19T13:19:17.599Z,1.5
2022-12-19T13:20:14.320Z,1.5
2022-12-19T13:21:16.347Z,1.5
2022-12-19T13:22:18.271Z,1.6
2022-12-19T13:23:20.321Z,1.7
2022-12-19T13:24:22.318Z,1.7
2022-12-19T13:25:24.508Z,1.6
2022-12-19T13:26:26.352Z,1.5
2022-12-19T13:27:28.360Z,1.4
2022-12-19T13:28:30.363Z,1.4
2022-12-19T13:29:32.343Z,1.5
2022-12-19T13:31:13.567Z,1.5
2022-12-19T13:31:36.344Z,1.5
2022-12-19T13:32:38.353Z,1.5
2022-12-19T13:33:40.319Z,1.5
2022-12-19T13:34:43.536Z,1.5
2022-12-19T13:36:40.078Z,1.5
2022-12-19T13:39:47.298Z,1.4
2022-12-19T13:39:52.568Z,1.2
2022-12-19T13:39:53.545Z,1.3
2022-12-19T13:40:06.417Z,1.1
2022-12-19T13:40:54.347Z,1.2
2022-12-19T13:41:56.365Z,1.1
2022-12-19T13:43:09.354Z,1.2
2022-12-19T13:44:00.365Z,1.1
2022-12-19T13:45:02.388Z,1.1
2022-12-19T13:46:04.462Z,1.1
2022-12-19T13:47:06.358Z,1.1
2022-12-19T13:48:08.319Z,1.2
2022-12-19T13:49:10.342Z,1.2
2022-12-19T13:50:12.430Z,1.2
2022-12-19T13:51:14.293Z,1.1
2022-12-19T13:52:16.320Z,1
2022-12-19T13:53:18.322Z,1
2022-12-19T13:54:20.321Z,0.9
2022-12-19T13:55:22.261Z,1
2022-12-19T13:56:23.339Z,1.1
2022-12-19T13:57:25.346Z,1
2022-12-19T13:58:28.811Z,1
2022-12-19T13:59:29.423Z,0.9
2022-12-19T14:00:31.330Z,0.8
2022-12-19T14:01:33.545Z,0.8
2022-12-19T14:02:44.638Z,0.8
2022-12-19T14:03:37.451Z,0.9
2022-12-19T14:04:39.357Z,0.9
2022-12-19T14:06:15.398Z,0.9
2022-12-19T14:06:43.402Z,0.9
2022-12-19T14:07:45.298Z,0.9
2022-12-19T14:08:47.280Z,0.9
2022-12-19T14:11:24.871Z,0.9
2022-12-19T14:11:25.937Z,0.8